sensor_id;sensor_type;location;lat;lon;timestamp;temperature;humidity
33368;DHT22;19724;51.114;13.906;2023-03-03T00:01:05;0.00;99.90
33368;DHT22;19724;51.114;13.906;2023-03-03T00:03:31;0.10;99.90
33368;DHT22;19724;51.114;13.906;2023-03-03T00:05:57;0.10;99.90
33368;DHT22;19724;51.114;13.906;2023-03-03T00:08:23;0.20;99.90
33368;DHT22;19724;51.114;13.906;2023-03-03T00:10:49;0.20;99.90
33368;DHT22;19724;51.114;13.906;2023-03-03T00:13:19;0.20;99.90
33368;DHT22;19724;51.114;13.906;2023-03-03T00:15:45;0.30;99.90
33368;DHT22;19724;51.114;13.906;2023-03-03T00:18:35;0.40;99.90
33368;DHT22;19724;51.114;13.906;2023-03-03T00:21:18;0.40;99.90
33368;DHT22;19724;51.114;13.906;2023-03-03T00:23:44;0.40;99.90
33368;DHT22;19724;51.114;13.906;2023-03-03T00:26:24;0.50;99.90
33368;DHT22;19724;51.114;13.906;2023-03-03T00:28:52;0.40;99.90
33368;DHT22;19724;51.114;13.906;2023-03-03T00:31:22;0.40;99.90
33368;DHT22;19724;51.114;13.906;2023-03-03T00:33:53;0.50;99.90
33368;DHT22;19724;51.114;13.906;2023-03-03T00:36:34;0.50;99.90
33368;DHT22;19724;51.114;13.906;2023-03-03T00:39:25;0.50;99.90
33368;DHT22;19724;51.114;13.906;2023-03-03T00:41:51;0.40;99.90
33368;DHT22;19724;51.114;13.906;2023-03-03T00:44:45;0.50;99.90
33368;DHT22;19724;51.114;13.906;2023-03-03T00:47:29;0.50;99.90
33368;DHT22;19724;51.114;13.906;2023-03-03T00:52:43;0.50;99.90
33368;DHT22;19724;51.114;13.906;2023-03-03T00:55:10;0.50;99.90
33368;DHT22;19724;51.114;13.906;2023-03-03T00:57:36;0.50;99.90
33368;DHT22;19724;51.114;13.906;2023-03-03T01:00:02;0.40;99.90
33368;DHT22;19724;51.114;13.906;2023-03-03T01:02:28;0.40;99.90
33368;DHT22;19724;51.114;13.906;2023-03-03T01:04:53;0.40;99.90
33368;DHT22;19724;51.114;13.906;2023-03-03T01:07:22;0.40;99.90
33368;DHT22;19724;51.114;13.906;2023-03-03T01:09:48;0.40;99.90
33368;DHT22;19724;51.114;13.906;2023-03-03T01:12:13;0.40;99.90
33368;DHT22;19724;51.114;13.906;2023-03-03T01:14:39;0.40;99.90
33368;DHT22;19724;51.114;13.906;2023-03-03T01:17:05;0.50;99.90
33368;DHT22;19724;51.114;13.906;2023-03-03T01:19:31;0.40;99.90
33368;DHT22;19724;51.114;13.906;2023-03-03T01:21:57;0.40;99.90
33368;DHT22;19724;51.114;13.906;2023-03-03T01:24:22;0.30;99.90
33368;DHT22;19724;51.114;13.906;2023-03-03T01:26:48;0.30;99.90
33368;DHT22;19724;51.114;13.906;2023-03-03T01:29:14;0.30;99.90
33368;DHT22;19724;51.114;13.906;2023-03-03T01:31:39;0.30;99.90
33368;DHT22;19724;51.114;13.906;2023-03-03T01:34:05;0.40;99.90
33368;DHT22;19724;51.114;13.906;2023-03-03T01:36:32;0.40;99.90
33368;DHT22;19724;51.114;13.906;2023-03-03T01:38:57;0.40;99.90
33368;DHT22;19724;51.114;13.906;2023-03-03T01:41:26;0.40;99.90
33368;DHT22;19724;51.114;13.906;2023-03-03T01:43:54;0.40;99.90
33368;DHT22;19724;51.114;13.906;2023-03-03T01:48:49;0.50;99.90
33368;DHT22;19724;51.114;13.906;2023-03-03T01:51:23;0.50;99.90
33368;DHT22;19724;51.114;13.906;2023-03-03T01:53:52;0.50;99.90
33368;DHT22;19724;51.114;13.906;2023-03-03T01:56:19;0.40;99.90
33368;DHT22;19724;51.114;13.906;2023-03-03T01:58:50;0.40;99.90
33368;DHT22;19724;51.114;13.906;2023-03-03T02:01:20;0.30;99.90
33368;DHT22;19724;51.114;13.906;2023-03-03T02:03:47;0.30;99.90
33368;DHT22;19724;51.114;13.906;2023-03-03T02:06:16;0.20;99.90
33368;DHT22;19724;51.114;13.906;2023-03-03T02:08:53;0.20;99.90
33368;DHT22;19724;51.114;13.906;2023-03-03T02:11:21;0.30;99.90
33368;DHT22;19724;51.114;13.906;2023-03-03T02:13:46;0.30;99.90
33368;DHT22;19724;51.114;13.906;2023-03-03T02:16:12;0.30;99.90
33368;DHT22;19724;51.114;13.906;2023-03-03T02:18:38;0.20;99.90
33368;DHT22;19724;51.114;13.906;2023-03-03T02:21:09;0.20;99.90
33368;DHT22;19724;51.114;13.906;2023-03-03T02:23:49;0.20;99.90
33368;DHT22;19724;51.114;13.906;2023-03-03T02:26:22;0.20;99.90
33368;DHT22;19724;51.114;13.906;2023-03-03T02:28:48;0.20;99.90
33368;DHT22;19724;51.114;13.906;2023-03-03T02:31:17;0.30;99.90
33368;DHT22;19724;51.114;13.906;2023-03-03T02:33:46;0.20;99.90
33368;DHT22;19724;51.114;13.906;2023-03-03T02:36:13;0.20;99.90
33368;DHT22;19724;51.114;13.906;2023-03-03T02:44:03;0.10;99.90
33368;DHT22;19724;51.114;13.906;2023-03-03T02:46:37;0.20;99.90
33368;DHT22;19724;51.114;13.906;2023-03-03T02:49:04;0.20;99.90
33368;DHT22;19724;51.114;13.906;2023-03-03T02:51:30;0.30;99.90
33368;DHT22;19724;51.114;13.906;2023-03-03T02:53:56;0.20;99.90
33368;DHT22;19724;51.114;13.906;2023-03-03T02:56:21;0.30;99.90
33368;DHT22;19724;51.114;13.906;2023-03-03T02:58:48;0.30;99.90
33368;DHT22;19724;51.114;13.906;2023-03-03T03:01:14;0.20;99.90
33368;DHT22;19724;51.114;13.906;2023-03-03T03:03:40;0.20;99.90
33368;DHT22;19724;51.114;13.906;2023-03-03T03:06:05;0.10;99.90
33368;DHT22;19724;51.114;13.906;2023-03-03T03:08:31;0.10;99.90
33368;DHT22;19724;51.114;13.906;2023-03-03T03:10:57;0.10;99.90
33368;DHT22;19724;51.114;13.906;2023-03-03T03:13:23;0.10;99.90
33368;DHT22;19724;51.114;13.906;2023-03-03T03:15:49;0.10;99.90
33368;DHT22;19724;51.114;13.906;2023-03-03T03:18:15;0.10;99.90
33368;DHT22;19724;51.114;13.906;2023-03-03T03:20:41;0.10;99.90
33368;DHT22;19724;51.114;13.906;2023-03-03T03:23:08;0.10;99.90
33368;DHT22;19724;51.114;13.906;2023-03-03T03:25:35;0.20;99.90
33368;DHT22;19724;51.114;13.906;2023-03-03T03:28:07;0.10;99.90
33368;DHT22;19724;51.114;13.906;2023-03-03T03:30:34;0.10;99.90
33368;DHT22;19724;51.114;13.906;2023-03-03T03:33:00;0.00;99.90
33368;DHT22;19724;51.114;13.906;2023-03-03T03:35:25;0.10;99.90
33368;DHT22;19724;51.114;13.906;2023-03-03T03:37:51;0.10;99.90
33368;DHT22;19724;51.114;13.906;2023-03-03T03:40:16;0.10;99.90
33368;DHT22;19724;51.114;13.906;2023-03-03T03:42:42;0.10;99.90
33368;DHT22;19724;51.114;13.906;2023-03-03T03:45:07;0.00;99.90
33368;DHT22;19724;51.114;13.906;2023-03-03T03:47:33;0.00;99.90
33368;DHT22;19724;51.114;13.906;2023-03-03T03:49:59;0.10;99.90
33368;DHT22;19724;51.114;13.906;2023-03-03T03:52:24;0.10;99.90
33368;DHT22;19724;51.114;13.906;2023-03-03T03:54:50;0.10;99.90
33368;DHT22;19724;51.114;13.906;2023-03-03T03:57:15;0.10;99.90
33368;DHT22;19724;51.114;13.906;2023-03-03T03:59:40;0.10;99.90
33368;DHT22;19724;51.114;13.906;2023-03-03T04:02:06;0.10;99.90
33368;DHT22;19724;51.114;13.906;2023-03-03T04:04:32;0.00;99.90
33368;DHT22;19724;51.114;13.906;2023-03-03T04:06:57;0.00;99.90
33368;DHT22;19724;51.114;13.906;2023-03-03T04:09:23;0.00;99.90
33368;DHT22;19724;51.114;13.906;2023-03-03T04:11:49;0.10;99.90
33368;DHT22;19724;51.114;13.906;2023-03-03T04:14:15;0.10;99.90
33368;DHT22;19724;51.114;13.906;2023-03-03T04:16:40;0.10;99.90
33368;DHT22;19724;51.114;13.906;2023-03-03T04:19:06;0.00;99.90
33368;DHT22;19724;51.114;13.906;2023-03-03T04:21:31;0.00;99.90
33368;DHT22;19724;51.114;13.906;2023-03-03T04:23:57;0.00;99.90
33368;DHT22;19724;51.114;13.906;2023-03-03T04:26:22;0.00;99.90
33368;DHT22;19724;51.114;13.906;2023-03-03T04:28:48;0.00;99.90
33368;DHT22;19724;51.114;13.906;2023-03-03T04:31:13;-0.10;99.90
33368;DHT22;19724;51.114;13.906;2023-03-03T04:33:39;-0.10;99.90
33368;DHT22;19724;51.114;13.906;2023-03-03T04:36:05;0.00;99.90
33368;DHT22;19724;51.114;13.906;2023-03-03T04:38:30;-0.10;99.90
33368;DHT22;19724;51.114;13.906;2023-03-03T04:40:56;-0.10;99.90
33368;DHT22;19724;51.114;13.906;2023-03-03T04:43:22;-0.20;99.90
33368;DHT22;19724;51.114;13.906;2023-03-03T04:45:47;-0.20;99.90
33368;DHT22;19724;51.114;13.906;2023-03-03T04:48:13;-0.10;99.90
33368;DHT22;19724;51.114;13.906;2023-03-03T04:50:38;-0.10;99.90
33368;DHT22;19724;51.114;13.906;2023-03-03T04:53:04;-0.10;99.90
33368;DHT22;19724;51.114;13.906;2023-03-03T04:55:29;-0.10;99.90
33368;DHT22;19724;51.114;13.906;2023-03-03T04:57:55;-0.10;99.90
33368;DHT22;19724;51.114;13.906;2023-03-03T05:00:20;-0.10;99.90
33368;DHT22;19724;51.114;13.906;2023-03-03T05:02:47;-0.10;99.90
33368;DHT22;19724;51.114;13.906;2023-03-03T05:05:12;-0.10;99.90
33368;DHT22;19724;51.114;13.906;2023-03-03T05:07:38;-0.10;99.90
33368;DHT22;19724;51.114;13.906;2023-03-03T05:10:04;0.00;99.90
33368;DHT22;19724;51.114;13.906;2023-03-03T05:12:31;-0.10;99.90
33368;DHT22;19724;51.114;13.906;2023-03-03T05:14:57;-0.10;99.90
33368;DHT22;19724;51.114;13.906;2023-03-03T05:17:22;-0.10;99.90
33368;DHT22;19724;51.114;13.906;2023-03-03T05:19:48;-0.10;99.90
33368;DHT22;19724;51.114;13.906;2023-03-03T05:22:14;-0.20;99.90
33368;DHT22;19724;51.114;13.906;2023-03-03T05:24:39;-0.20;99.90
33368;DHT22;19724;51.114;13.906;2023-03-03T05:27:07;-0.10;99.90
33368;DHT22;19724;51.114;13.906;2023-03-03T05:29:32;-0.20;99.90
33368;DHT22;19724;51.114;13.906;2023-03-03T05:31:58;-0.20;99.90
33368;DHT22;19724;51.114;13.906;2023-03-03T05:34:23;-0.20;99.90
33368;DHT22;19724;51.114;13.906;2023-03-03T05:36:49;-0.20;99.90
33368;DHT22;19724;51.114;13.906;2023-03-03T05:39:15;-0.10;99.90
33368;DHT22;19724;51.114;13.906;2023-03-03T05:41:40;-0.10;99.90
33368;DHT22;19724;51.114;13.906;2023-03-03T05:44:06;-0.10;99.90
33368;DHT22;19724;51.114;13.906;2023-03-03T05:46:32;-0.10;99.90
33368;DHT22;19724;51.114;13.906;2023-03-03T05:48:57;0.00;99.90
33368;DHT22;19724;51.114;13.906;2023-03-03T05:51:23;0.00;99.90
33368;DHT22;19724;51.114;13.906;2023-03-03T05:53:49;0.00;99.90
33368;DHT22;19724;51.114;13.906;2023-03-03T05:56:14;-0.10;99.90
33368;DHT22;19724;51.114;13.906;2023-03-03T05:58:40;-0.10;99.90
33368;DHT22;19724;51.114;13.906;2023-03-03T06:01:05;-0.10;99.90
33368;DHT22;19724;51.114;13.906;2023-03-03T06:03:31;-0.10;99.90
33368;DHT22;19724;51.114;13.906;2023-03-03T06:05:56;-0.20;99.90
33368;DHT22;19724;51.114;13.906;2023-03-03T06:08:22;-0.20;99.90
33368;DHT22;19724;51.114;13.906;2023-03-03T06:10:48;-0.20;99.90
33368;DHT22;19724;51.114;13.906;2023-03-03T06:13:13;-0.20;99.90
33368;DHT22;19724;51.114;13.906;2023-03-03T06:15:39;-0.20;99.90
33368;DHT22;19724;51.114;13.906;2023-03-03T06:18:05;-0.20;99.90
33368;DHT22;19724;51.114;13.906;2023-03-03T06:20:31;-0.30;99.90
33368;DHT22;19724;51.114;13.906;2023-03-03T06:22:57;-0.20;99.90
33368;DHT22;19724;51.114;13.906;2023-03-03T06:25:22;-0.20;99.90
33368;DHT22;19724;51.114;13.906;2023-03-03T06:27:48;-0.30;99.90
33368;DHT22;19724;51.114;13.906;2023-03-03T06:30:14;-0.20;99.90
33368;DHT22;19724;51.114;13.906;2023-03-03T06:32:39;-0.10;99.90
33368;DHT22;19724;51.114;13.906;2023-03-03T06:35:05;-0.20;99.90
33368;DHT22;19724;51.114;13.906;2023-03-03T06:37:31;-0.20;99.90
33368;DHT22;19724;51.114;13.906;2023-03-03T06:39:56;-0.20;99.90
33368;DHT22;19724;51.114;13.906;2023-03-03T06:42:22;-0.10;99.90
33368;DHT22;19724;51.114;13.906;2023-03-03T06:44:49;-0.10;99.90
33368;DHT22;19724;51.114;13.906;2023-03-03T06:47:14;-0.10;99.90
33368;DHT22;19724;51.114;13.906;2023-03-03T06:49:40;0.00;99.90
33368;DHT22;19724;51.114;13.906;2023-03-03T06:52:12;0.00;99.90
33368;DHT22;19724;51.114;13.906;2023-03-03T06:54:38;0.00;99.90
33368;DHT22;19724;51.114;13.906;2023-03-03T06:57:25;0.00;99.90
33368;DHT22;19724;51.114;13.906;2023-03-03T06:59:52;0.00;99.90
33368;DHT22;19724;51.114;13.906;2023-03-03T07:02:19;0.00;99.90
33368;DHT22;19724;51.114;13.906;2023-03-03T07:04:45;0.00;99.90
33368;DHT22;19724;51.114;13.906;2023-03-03T07:09:39;0.00;99.90
33368;DHT22;19724;51.114;13.906;2023-03-03T07:12:28;0.00;99.90
33368;DHT22;19724;51.114;13.906;2023-03-03T07:17:48;0.10;99.90
33368;DHT22;19724;51.114;13.906;2023-03-03T07:20:22;0.10;99.90
33368;DHT22;19724;51.114;13.906;2023-03-03T07:22:49;0.00;99.90
33368;DHT22;19724;51.114;13.906;2023-03-03T07:25:31;0.10;99.90
33368;DHT22;19724;51.114;13.906;2023-03-03T07:30:41;0.20;99.90
33368;DHT22;19724;51.114;13.906;2023-03-03T07:33:27;0.20;99.90
33368;DHT22;19724;51.114;13.906;2023-03-03T07:35:55;0.20;99.90
33368;DHT22;19724;51.114;13.906;2023-03-03T07:38:36;0.20;99.90
33368;DHT22;19724;51.114;13.906;2023-03-03T07:41:04;0.20;99.90
33368;DHT22;19724;51.114;13.906;2023-03-03T07:43:42;0.20;99.90
33368;DHT22;19724;51.114;13.906;2023-03-03T07:48:40;0.20;99.90
33368;DHT22;19724;51.114;13.906;2023-03-03T07:51:20;0.20;99.90
33368;DHT22;19724;51.114;13.906;2023-03-03T07:54:10;0.30;99.90
33368;DHT22;19724;51.114;13.906;2023-03-03T07:56:37;0.20;99.90
33368;DHT22;19724;51.114;13.906;2023-03-03T07:59:21;0.20;99.90
33368;DHT22;19724;51.114;13.906;2023-03-03T08:01:54;0.20;99.90
33368;DHT22;19724;51.114;13.906;2023-03-03T08:04:41;0.30;99.90
33368;DHT22;19724;51.114;13.906;2023-03-03T08:07:14;0.30;99.90
33368;DHT22;19724;51.114;13.906;2023-03-03T08:14:54;0.20;99.90
33368;DHT22;19724;51.114;13.906;2023-03-03T08:17:22;0.20;99.90
33368;DHT22;19724;51.114;13.906;2023-03-03T08:19:49;0.20;99.90
33368;DHT22;19724;51.114;13.906;2023-03-03T08:22:18;0.30;99.90
33368;DHT22;19724;51.114;13.906;2023-03-03T08:24:43;0.30;99.90
33368;DHT22;19724;51.114;13.906;2023-03-03T08:27:09;0.30;99.90
33368;DHT22;19724;51.114;13.906;2023-03-03T08:29:35;0.30;99.90
33368;DHT22;19724;51.114;13.906;2023-03-03T08:32:00;0.30;99.90
33368;DHT22;19724;51.114;13.906;2023-03-03T08:34:26;0.30;99.90
33368;DHT22;19724;51.114;13.906;2023-03-03T08:36:51;0.30;99.90
33368;DHT22;19724;51.114;13.906;2023-03-03T08:39:17;0.30;99.90
33368;DHT22;19724;51.114;13.906;2023-03-03T08:41:44;0.20;99.90
33368;DHT22;19724;51.114;13.906;2023-03-03T08:44:10;0.30;99.90
33368;DHT22;19724;51.114;13.906;2023-03-03T08:46:36;0.30;99.90
33368;DHT22;19724;51.114;13.906;2023-03-03T08:49:02;0.40;99.90
33368;DHT22;19724;51.114;13.906;2023-03-03T08:51:29;0.50;99.90
33368;DHT22;19724;51.114;13.906;2023-03-03T08:53:55;0.50;99.90
33368;DHT22;19724;51.114;13.906;2023-03-03T08:56:20;0.60;99.90
33368;DHT22;19724;51.114;13.906;2023-03-03T08:58:46;0.70;99.90
33368;DHT22;19724;51.114;13.906;2023-03-03T09:01:14;0.80;99.90
33368;DHT22;19724;51.114;13.906;2023-03-03T09:03:43;0.70;99.90
33368;DHT22;19724;51.114;13.906;2023-03-03T09:06:09;0.70;99.90
33368;DHT22;19724;51.114;13.906;2023-03-03T09:08:36;0.70;99.90
33368;DHT22;19724;51.114;13.906;2023-03-03T09:11:02;0.70;99.90
33368;DHT22;19724;51.114;13.906;2023-03-03T09:13:29;0.70;99.90
33368;DHT22;19724;51.114;13.906;2023-03-03T09:15:57;0.70;99.90
33368;DHT22;19724;51.114;13.906;2023-03-03T09:18:37;0.80;99.90
33368;DHT22;19724;51.114;13.906;2023-03-03T09:21:22;0.80;99.90
33368;DHT22;19724;51.114;13.906;2023-03-03T09:23:59;0.80;99.90
33368;DHT22;19724;51.114;13.906;2023-03-03T09:31:48;0.80;99.90
33368;DHT22;19724;51.114;13.906;2023-03-03T09:36:57;0.70;99.90
33368;DHT22;19724;51.114;13.906;2023-03-03T09:39:25;0.80;99.90
33368;DHT22;19724;51.114;13.906;2023-03-03T09:44:41;0.70;99.90
33368;DHT22;19724;51.114;13.906;2023-03-03T09:52:45;0.70;99.90
33368;DHT22;19724;51.114;13.906;2023-03-03T10:00:58;0.60;99.90
33368;DHT22;19724;51.114;13.906;2023-03-03T10:08:57;0.70;99.90
33368;DHT22;19724;51.114;13.906;2023-03-03T10:11:40;0.70;99.90
33368;DHT22;19724;51.114;13.906;2023-03-03T10:20:33;0.80;99.90
33368;DHT22;19724;51.114;13.906;2023-03-03T10:32:00;0.70;99.90
33368;DHT22;19724;51.114;13.906;2023-03-03T10:37:50;0.80;99.90
33368;DHT22;19724;51.114;13.906;2023-03-03T10:40:39;0.80;99.90
33368;DHT22;19724;51.114;13.906;2023-03-03T10:46:41;0.80;99.90
33368;DHT22;19724;51.114;13.906;2023-03-03T10:52:19;0.90;99.90
33368;DHT22;19724;51.114;13.906;2023-03-03T10:57:36;1.00;99.90
33368;DHT22;19724;51.114;13.906;2023-03-03T11:00:18;1.00;99.90
33368;DHT22;19724;51.114;13.906;2023-03-03T11:03:06;1.00;99.90
33368;DHT22;19724;51.114;13.906;2023-03-03T11:05:42;1.00;99.90
33368;DHT22;19724;51.114;13.906;2023-03-03T11:25:13;0.90;99.90
33368;DHT22;19724;51.114;13.906;2023-03-03T11:36:14;1.10;99.90
33368;DHT22;19724;51.114;13.906;2023-03-03T11:38:52;1.20;99.90
33368;DHT22;19724;51.114;13.906;2023-03-03T11:43:58;1.30;99.90
33368;DHT22;19724;51.114;13.906;2023-03-03T11:46:44;1.30;99.90
33368;DHT22;19724;51.114;13.906;2023-03-03T11:49:36;1.40;99.90
33368;DHT22;19724;51.114;13.906;2023-03-03T11:54:53;1.30;99.90
33368;DHT22;19724;51.114;13.906;2023-03-03T11:57:49;1.30;99.90
33368;DHT22;19724;51.114;13.906;2023-03-03T12:03:40;1.30;99.90
33368;DHT22;19724;51.114;13.906;2023-03-03T12:11:37;1.40;99.90
33368;DHT22;19724;51.114;13.906;2023-03-03T12:16:54;1.40;99.90
33368;DHT22;19724;51.114;13.906;2023-03-03T12:19:34;1.40;99.90
33368;DHT22;19724;51.114;13.906;2023-03-03T12:22:12;1.30;99.90
33368;DHT22;19724;51.114;13.906;2023-03-03T12:31:05;1.20;99.90
33368;DHT22;19724;51.114;13.906;2023-03-03T12:34:02;1.20;99.90
33368;DHT22;19724;51.114;13.906;2023-03-03T12:36:54;1.20;99.90
33368;DHT22;19724;51.114;13.906;2023-03-03T12:39:40;1.20;99.90
33368;DHT22;19724;51.114;13.906;2023-03-03T12:42:35;1.20;99.90
33368;DHT22;19724;51.114;13.906;2023-03-03T12:47:52;1.30;99.90
33368;DHT22;19724;51.114;13.906;2023-03-03T12:50:35;1.40;99.90
33368;DHT22;19724;51.114;13.906;2023-03-03T12:53:15;1.40;99.90
33368;DHT22;19724;51.114;13.906;2023-03-03T12:56:04;1.50;99.90
33368;DHT22;19724;51.114;13.906;2023-03-03T13:04:07;1.50;99.90
33368;DHT22;19724;51.114;13.906;2023-03-03T13:06:45;1.50;99.90
33368;DHT22;19724;51.114;13.906;2023-03-03T13:12:26;1.40;99.90
33368;DHT22;19724;51.114;13.906;2023-03-03T13:15:14;1.50;99.90
33368;DHT22;19724;51.114;13.906;2023-03-03T13:18:14;1.50;99.90
33368;DHT22;19724;51.114;13.906;2023-03-03T13:29:04;1.60;99.90
33368;DHT22;19724;51.114;13.906;2023-03-03T13:31:36;1.50;99.90
33368;DHT22;19724;51.114;13.906;2023-03-03T13:34:03;1.50;99.90
33368;DHT22;19724;51.114;13.906;2023-03-03T13:37:07;1.50;99.90
33368;DHT22;19724;51.114;13.906;2023-03-03T13:39:57;1.50;99.90
33368;DHT22;19724;51.114;13.906;2023-03-03T13:42:31;1.60;99.90
33368;DHT22;19724;51.114;13.906;2023-03-03T13:45:49;1.70;99.90
33368;DHT22;19724;51.114;13.906;2023-03-03T13:51:43;1.70;99.90
33368;DHT22;19724;51.114;13.906;2023-03-03T13:57:49;1.70;99.90
33368;DHT22;19724;51.114;13.906;2023-03-03T14:00:41;1.70;99.90
33368;DHT22;19724;51.114;13.906;2023-03-03T14:03:22;1.80;99.90
33368;DHT22;19724;51.114;13.906;2023-03-03T14:05:55;1.80;99.90
33368;DHT22;19724;51.114;13.906;2023-03-03T14:11:53;1.80;99.90
33368;DHT22;19724;51.114;13.906;2023-03-03T14:14:28;1.80;99.90
33368;DHT22;19724;51.114;13.906;2023-03-03T14:19:39;1.80;99.90
33368;DHT22;19724;51.114;13.906;2023-03-03T14:22:28;1.80;99.90
33368;DHT22;19724;51.114;13.906;2023-03-03T14:27:35;1.90;99.90
33368;DHT22;19724;51.114;13.906;2023-03-03T14:30:27;1.80;99.90
33368;DHT22;19724;51.114;13.906;2023-03-03T14:33:20;1.80;99.90
33368;DHT22;19724;51.114;13.906;2023-03-03T14:35:59;1.90;99.90
33368;DHT22;19724;51.114;13.906;2023-03-03T14:41:16;1.90;99.90
33368;DHT22;19724;51.114;13.906;2023-03-03T14:49:00;1.90;99.90
33368;DHT22;19724;51.114;13.906;2023-03-03T14:51:42;1.80;99.90
33368;DHT22;19724;51.114;13.906;2023-03-03T14:54:23;1.80;99.90
33368;DHT22;19724;51.114;13.906;2023-03-03T14:57:12;1.80;99.90
33368;DHT22;19724;51.114;13.906;2023-03-03T14:59:40;1.80;99.90
33368;DHT22;19724;51.114;13.906;2023-03-03T15:02:23;1.80;99.90
33368;DHT22;19724;51.114;13.906;2023-03-03T15:05:12;1.80;99.90
33368;DHT22;19724;51.114;13.906;2023-03-03T15:07:38;1.70;99.90
33368;DHT22;19724;51.114;13.906;2023-03-03T15:10:07;1.70;99.90
33368;DHT22;19724;51.114;13.906;2023-03-03T15:12:35;1.70;99.90
33368;DHT22;19724;51.114;13.906;2023-03-03T15:17:40;1.70;99.90
33368;DHT22;19724;51.114;13.906;2023-03-03T15:25:38;1.80;99.90
33368;DHT22;19724;51.114;13.906;2023-03-03T15:28:27;1.70;99.90
33368;DHT22;19724;51.114;13.906;2023-03-03T15:31:37;1.80;99.90
33368;DHT22;19724;51.114;13.906;2023-03-03T15:34:25;1.70;99.90
33368;DHT22;19724;51.114;13.906;2023-03-03T15:37:24;1.70;99.90
33368;DHT22;19724;51.114;13.906;2023-03-03T15:45:29;1.80;99.90
33368;DHT22;19724;51.114;13.906;2023-03-03T15:54:02;1.80;99.90
33368;DHT22;19724;51.114;13.906;2023-03-03T15:56:55;1.80;99.90
33368;DHT22;19724;51.114;13.906;2023-03-03T15:59:54;1.70;99.90
33368;DHT22;19724;51.114;13.906;2023-03-03T16:02:33;1.70;99.90
33368;DHT22;19724;51.114;13.906;2023-03-03T16:05:29;1.70;99.90
33368;DHT22;19724;51.114;13.906;2023-03-03T16:21:57;1.40;99.90
33368;DHT22;19724;51.114;13.906;2023-03-03T16:25:12;1.40;99.90
33368;DHT22;19724;51.114;13.906;2023-03-03T16:27:35;1.40;99.90
33368;DHT22;19724;51.114;13.906;2023-03-03T16:30:26;1.50;99.90
33368;DHT22;19724;51.114;13.906;2023-03-03T16:33:10;1.40;99.90
33368;DHT22;19724;51.114;13.906;2023-03-03T16:38:41;1.50;99.90
33368;DHT22;19724;51.114;13.906;2023-03-03T16:41:14;1.40;99.90
33368;DHT22;19724;51.114;13.906;2023-03-03T16:46:46;1.30;99.90
33368;DHT22;19724;51.114;13.906;2023-03-03T16:49:32;1.30;99.90
33368;DHT22;19724;51.114;13.906;2023-03-03T16:54:40;1.30;99.90
33368;DHT22;19724;51.114;13.906;2023-03-03T16:57:18;1.30;99.90
33368;DHT22;19724;51.114;13.906;2023-03-03T17:00:03;1.30;99.90
33368;DHT22;19724;51.114;13.906;2023-03-03T17:02:57;1.30;99.90
33368;DHT22;19724;51.114;13.906;2023-03-03T17:19:32;1.30;99.90
33368;DHT22;19724;51.114;13.906;2023-03-03T17:25:03;1.30;99.90
33368;DHT22;19724;51.114;13.906;2023-03-03T17:27:44;1.30;99.90
33368;DHT22;19724;51.114;13.906;2023-03-03T17:30:25;1.30;99.90
33368;DHT22;19724;51.114;13.906;2023-03-03T17:33:22;1.30;99.90
33368;DHT22;19724;51.114;13.906;2023-03-03T17:38:50;1.40;99.90
33368;DHT22;19724;51.114;13.906;2023-03-03T17:41:32;1.30;99.90
33368;DHT22;19724;51.114;13.906;2023-03-03T17:46:58;1.40;99.90
33368;DHT22;19724;51.114;13.906;2023-03-03T17:58:28;1.20;99.90
33368;DHT22;19724;51.114;13.906;2023-03-03T18:06:52;1.20;99.90
33368;DHT22;19724;51.114;13.906;2023-03-03T18:09:30;1.10;99.90
33368;DHT22;19724;51.114;13.906;2023-03-03T18:12:21;1.10;99.90
33368;DHT22;19724;51.114;13.906;2023-03-03T18:15:18;1.10;99.90
33368;DHT22;19724;51.114;13.906;2023-03-03T18:17:50;1.20;99.90
33368;DHT22;19724;51.114;13.906;2023-03-03T18:23:32;1.10;99.90
33368;DHT22;19724;51.114;13.906;2023-03-03T18:26:02;1.10;99.90
33368;DHT22;19724;51.114;13.906;2023-03-03T18:28:46;1.10;99.90
33368;DHT22;19724;51.114;13.906;2023-03-03T18:31:25;1.10;99.90
33368;DHT22;19724;51.114;13.906;2023-03-03T18:34:10;1.10;99.90
33368;DHT22;19724;51.114;13.906;2023-03-03T18:36:58;1.10;99.90
33368;DHT22;19724;51.114;13.906;2023-03-03T18:39:40;1.00;99.90
33368;DHT22;19724;51.114;13.906;2023-03-03T18:44:50;1.00;99.90
33368;DHT22;19724;51.114;13.906;2023-03-03T18:47:15;1.00;99.90
33368;DHT22;19724;51.114;13.906;2023-03-03T18:49:55;1.00;99.90
33368;DHT22;19724;51.114;13.906;2023-03-03T18:52:27;1.10;99.90
33368;DHT22;19724;51.114;13.906;2023-03-03T18:55:05;1.10;99.90
33368;DHT22;19724;51.114;13.906;2023-03-03T19:00:51;1.10;99.90
33368;DHT22;19724;51.114;13.906;2023-03-03T19:03:32;1.10;99.90
33368;DHT22;19724;51.114;13.906;2023-03-03T19:05:58;1.20;99.90
33368;DHT22;19724;51.114;13.906;2023-03-03T19:08:51;1.10;99.90
33368;DHT22;19724;51.114;13.906;2023-03-03T19:11:40;1.10;99.90
33368;DHT22;19724;51.114;13.906;2023-03-03T19:16:58;1.00;99.90
33368;DHT22;19724;51.114;13.906;2023-03-03T19:20:08;1.00;99.90
33368;DHT22;19724;51.114;13.906;2023-03-03T19:22:44;1.00;99.90
33368;DHT22;19724;51.114;13.906;2023-03-03T19:25:27;1.10;99.90
33368;DHT22;19724;51.114;13.906;2023-03-03T19:31:06;1.00;99.90
33368;DHT22;19724;51.114;13.906;2023-03-03T19:33:39;1.10;99.90
33368;DHT22;19724;51.114;13.906;2023-03-03T19:44:23;1.10;99.90
33368;DHT22;19724;51.114;13.906;2023-03-03T19:47:22;1.20;99.90
33368;DHT22;19724;51.114;13.906;2023-03-03T19:50:12;1.20;99.90
33368;DHT22;19724;51.114;13.906;2023-03-03T19:52:49;1.20;99.90
33368;DHT22;19724;51.114;13.906;2023-03-03T19:58:21;1.20;99.90
33368;DHT22;19724;51.114;13.906;2023-03-03T20:04:15;1.10;99.90
33368;DHT22;19724;51.114;13.906;2023-03-03T20:06:56;1.10;99.90
33368;DHT22;19724;51.114;13.906;2023-03-03T20:15:19;1.20;99.90
33368;DHT22;19724;51.114;13.906;2023-03-03T20:40:00;1.10;99.90
33368;DHT22;19724;51.114;13.906;2023-03-03T20:42:40;1.20;99.90
33368;DHT22;19724;51.114;13.906;2023-03-03T20:48:14;1.20;99.90
33368;DHT22;19724;51.114;13.906;2023-03-03T20:59:45;1.20;99.90
33368;DHT22;19724;51.114;13.906;2023-03-03T21:02:31;1.20;99.90
33368;DHT22;19724;51.114;13.906;2023-03-03T21:05:32;1.20;99.90
33368;DHT22;19724;51.114;13.906;2023-03-03T21:08:01;1.20;99.90
33368;DHT22;19724;51.114;13.906;2023-03-03T21:10:30;1.20;99.90
33368;DHT22;19724;51.114;13.906;2023-03-03T21:15:58;1.30;99.90
33368;DHT22;19724;51.114;13.906;2023-03-03T21:18:25;1.30;99.90
33368;DHT22;19724;51.114;13.906;2023-03-03T21:20:51;1.30;99.90
33368;DHT22;19724;51.114;13.906;2023-03-03T21:23:16;1.30;99.90
33368;DHT22;19724;51.114;13.906;2023-03-03T21:25:50;1.30;99.90
33368;DHT22;19724;51.114;13.906;2023-03-03T21:31:09;1.30;99.90
33368;DHT22;19724;51.114;13.906;2023-03-03T21:36:10;1.30;99.90